createdAt,value
2023-02-02T00:01:11.985Z,149290.38
2023-02-02T00:03:39.093Z,149290.38
2023-02-02T00:06:05.499Z,149328.13
2023-02-02T00:08:31.511Z,149328.13
2023-02-02T00:10:57.373Z,149308.00
2023-02-02T00:13:23.208Z,149297.91
2023-02-02T00:15:49.234Z,149310.50
2023-02-02T00:18:15.230Z,149319.28
2023-02-02T00:20:41.103Z,149363.34
2023-02-02T00:23:06.933Z,149349.50
2023-02-02T00:25:32.913Z,149310.50
2023-02-02T00:27:58.881Z,149324.34
2023-02-02T00:30:24.975Z,149334.38
2023-02-02T00:32:52.441Z,149326.88
2023-02-02T00:35:18.683Z,149314.28
2023-02-02T00:37:44.487Z,149336.91
2023-02-02T00:40:11.273Z,149333.13
2023-02-02T00:42:37.219Z,149326.88
2023-02-02T00:45:16.509Z,149340.66
2023-02-02T00:47:44.790Z,149353.25
2023-02-02T00:50:14.029Z,149377.19
2023-02-02T00:52:39.926Z,149397.31
2023-02-02T00:55:06.385Z,149368.34
2023-02-02T00:57:32.484Z,149349.50
2023-02-02T00:59:58.865Z,149396.06
2023-02-02T01:02:24.784Z,149418.69
2023-02-02T01:04:51.414Z,149413.66
2023-02-02T01:07:17.296Z,149435.03
2023-02-02T01:09:43.149Z,149455.16
2023-02-02T01:12:09.022Z,149469.00
2023-02-02T01:14:34.828Z,149446.34
2023-02-02T01:17:00.827Z,149457.66
2023-02-02T01:19:26.753Z,149467.75
2023-02-02T01:21:52.532Z,149463.94
2023-02-02T01:24:18.395Z,149469.00
2023-02-02T01:26:44.342Z,149467.75
2023-02-02T01:29:10.297Z,149489.16
2023-02-02T01:31:37.479Z,149491.66
2023-02-02T01:34:03.517Z,149500.44
2023-02-02T01:36:29.419Z,149490.41
2023-02-02T01:38:55.361Z,149495.41
2023-02-02T01:41:23.852Z,149520.63
2023-02-02T01:43:56.591Z,149523.13
2023-02-02T01:46:25.298Z,149505.50
2023-02-02T01:49:14.889Z,149535.66
2023-02-02T01:51:55.288Z,149555.81
2023-02-02T01:54:31.536Z,149558.38
2023-02-02T01:57:02.139Z,149563.38
2023-02-02T01:59:30.285Z,149573.44
2023-02-02T02:01:57.456Z,149554.56
2023-02-02T02:04:25.174Z,149565.91
2023-02-02T02:06:52.910Z,149554.56
2023-02-02T02:09:19.060Z,149582.25
2023-02-02T02:11:45.239Z,149568.41
2023-02-02T02:14:31.965Z,149545.75
2023-02-02T02:17:03.767Z,149557.09
2023-02-02T02:20:19.449Z,149594.88
2023-02-02T02:23:25.852Z,149603.66
2023-02-02T02:31:23.398Z,149633.88
2023-02-02T02:34:17.178Z,149620.03
2023-02-02T02:37:11.263Z,149632.63
2023-02-02T02:40:07.950Z,149632.63
2023-02-02T02:42:39.161Z,149640.16
2023-02-02T02:45:08.259Z,149645.19
2023-02-02T02:47:35.288Z,149632.63
2023-02-02T02:50:01.134Z,149657.78
2023-02-02T02:52:27.028Z,149656.53
2023-02-02T02:54:54.906Z,149647.75
2023-02-02T02:57:39.423Z,149661.56
2023-02-02T03:00:27.250Z,149660.28
2023-02-02T03:03:05.022Z,149651.50
2023-02-02T03:05:48.903Z,149612.50
2023-02-02T03:08:31.376Z,149617.50
2023-02-02T03:10:59.328Z,149613.75
2023-02-02T03:13:26.639Z,149602.41
2023-02-02T03:15:52.862Z,149645.19
2023-02-02T03:18:22.103Z,149662.81
2023-02-02T03:20:47.931Z,149643.91
2023-02-02T03:23:13.980Z,149649.00
2023-02-02T03:25:40.040Z,149652.75
2023-02-02T03:28:06.521Z,149630.13
2023-02-02T03:30:33.622Z,149643.91
2023-02-02T03:33:00.145Z,149625.03
2023-02-02T03:35:26.248Z,149623.78
2023-02-02T03:37:52.275Z,149640.16
2023-02-02T03:40:18.594Z,149626.31
2023-02-02T03:42:44.523Z,149666.63
2023-02-02T03:45:10.772Z,149680.44
2023-02-02T03:47:36.560Z,149640.16
2023-02-02T03:50:02.566Z,149649.00
2023-02-02T03:52:28.357Z,149652.75
2023-02-02T03:54:54.156Z,149661.56
2023-02-02T03:57:19.930Z,149655.28
2023-02-02T03:59:45.827Z,149642.66
2023-02-02T04:02:11.877Z,149650.25
2023-02-02T04:04:37.641Z,149647.75
2023-02-02T04:07:03.597Z,149670.38
2023-02-02T04:09:29.377Z,149670.38
2023-02-02T04:11:55.150Z,149666.63
2023-02-02T04:14:20.946Z,149683.00
2023-02-02T04:16:46.810Z,149690.53
2023-02-02T04:19:13.282Z,149674.16
2023-02-02T04:21:39.646Z,149676.66
2023-02-02T04:24:06.901Z,149665.38
2023-02-02T04:26:32.757Z,149676.66
2023-02-02T04:28:58.559Z,149679.19
2023-02-02T04:31:24.458Z,149711.94
2023-02-02T04:33:50.395Z,149693.03
2023-02-02T04:36:16.160Z,149701.88
2023-02-02T04:38:41.942Z,149716.94
2023-02-02T04:41:09.888Z,149737.13
2023-02-02T04:43:36.838Z,149733.31
2023-02-02T04:46:03.205Z,149723.28
2023-02-02T04:48:29.333Z,149698.06
2023-02-02T04:51:03.626Z,149706.91
2023-02-02T04:53:29.781Z,149719.50
2023-02-02T04:55:55.696Z,149713.19
2023-02-02T04:58:22.024Z,149709.41
2023-02-02T05:00:47.833Z,149744.69
2023-02-02T05:03:13.619Z,149754.78
2023-02-02T05:05:39.452Z,149742.16
2023-02-02T05:08:07.530Z,149735.88
2023-02-02T05:10:33.364Z,149727.03
2023-02-02T05:12:59.126Z,149713.19
2023-02-02T05:15:25.227Z,149709.41
2023-02-02T05:17:51.397Z,149725.78
2023-02-02T05:20:17.397Z,149719.50
2023-02-02T05:22:43.251Z,149756.03
2023-02-02T05:25:09.420Z,149716.94
2023-02-02T05:27:35.313Z,149747.19
2023-02-02T05:30:01.591Z,149734.59
2023-02-02T05:32:29.040Z,149750.97
2023-02-02T05:34:55.107Z,149730.81
2023-02-02T05:37:21.023Z,149730.81
2023-02-02T05:39:47.103Z,149739.66
2023-02-02T05:42:17.511Z,149738.41
2023-02-02T05:44:44.237Z,149733.31
2023-02-02T05:47:10.034Z,149737.13
2023-02-02T05:49:35.847Z,149747.19
2023-02-02T05:52:01.699Z,149768.59
2023-02-02T05:54:27.488Z,149768.59
2023-02-02T05:56:55.115Z,149735.88
2023-02-02T05:59:21.436Z,149752.22
2023-02-02T06:01:48.034Z,149768.59
2023-02-02T06:04:14.829Z,149769.84
2023-02-02T06:06:41.421Z,149750.97
2023-02-02T06:09:07.919Z,149767.34
2023-02-02T06:11:34.140Z,149738.41
2023-02-02T06:14:00.027Z,149748.44
2023-02-02T06:16:26.124Z,149730.81
2023-02-02T06:18:51.876Z,149754.78
2023-02-02T06:21:19.167Z,149733.31
2023-02-02T06:23:45.291Z,149735.88
2023-02-02T06:26:12.497Z,149723.28
2023-02-02T06:28:38.316Z,149756.03
2023-02-02T06:31:06.094Z,149735.88
2023-02-02T06:33:32.160Z,149756.03
2023-02-02T06:36:00.285Z,149747.19
2023-02-02T06:38:26.385Z,149753.50
2023-02-02T06:40:52.221Z,149776.19
2023-02-02T06:43:18.555Z,149740.91
2023-02-02T06:45:44.377Z,149757.28
2023-02-02T06:48:10.248Z,149771.16
2023-02-02T06:50:39.482Z,149757.28
2023-02-02T06:53:05.401Z,149753.50
2023-02-02T06:55:31.692Z,149747.19
2023-02-02T06:57:58.805Z,149743.41
2023-02-02T07:00:25.879Z,149777.44
2023-02-02T07:02:51.852Z,149766.06
2023-02-02T07:05:23.479Z,149783.72
2023-02-02T07:07:50.525Z,149782.44
2023-02-02T07:11:13.855Z,149790.03
2023-02-02T07:13:06.100Z,149773.66
2023-02-02T07:15:33.148Z,149788.78
2023-02-02T07:17:59.709Z,149782.44
2023-02-02T07:20:26.021Z,149783.72
2023-02-02T07:22:51.870Z,149754.78
2023-02-02T07:25:17.830Z,149764.81
2023-02-02T07:27:43.733Z,149800.09
2023-02-02T07:30:10.276Z,149791.28
2023-02-02T07:32:36.157Z,149768.59
2023-02-02T07:35:01.913Z,149768.59
2023-02-02T07:37:27.894Z,149761.06
2023-02-02T07:39:53.667Z,149791.28
2023-02-02T07:42:19.525Z,149781.19
2023-02-02T07:44:45.337Z,149776.19
2023-02-02T07:47:11.150Z,149761.06
2023-02-02T07:49:37.004Z,149769.84
2023-02-02T07:52:02.859Z,149787.47
2023-02-02T07:54:28.731Z,149781.19
2023-02-02T07:56:54.533Z,149781.19
2023-02-02T07:59:20.327Z,149782.44
2023-02-02T08:01:46.233Z,149803.84
2023-02-02T08:04:12.125Z,149797.56
2023-02-02T08:06:39.132Z,149802.59
2023-02-02T08:09:09.885Z,149801.34
2023-02-02T08:11:37.126Z,149803.84
2023-02-02T08:14:03.994Z,149776.19
2023-02-02T08:16:32.031Z,149797.56
2023-02-02T08:18:58.655Z,149795.06
2023-02-02T08:21:24.790Z,149784.97
2023-02-02T08:23:51.944Z,149790.03
2023-02-02T08:26:21.529Z,149806.38
2023-02-02T08:28:51.541Z,149792.56
2023-02-02T08:31:23.517Z,149805.13
2023-02-02T08:33:50.273Z,149817.72
2023-02-02T08:36:18.626Z,149815.22
2023-02-02T08:38:45.305Z,149824.00
2023-02-02T08:41:13.459Z,149826.56
2023-02-02T08:43:40.311Z,149802.59
2023-02-02T08:46:08.446Z,149813.97
2023-02-02T08:48:35.422Z,149839.13
2023-02-02T08:51:02.418Z,149816.47
2023-02-02T08:53:28.909Z,149795.06
2023-02-02T08:55:58.776Z,149829.09
2023-02-02T08:58:24.982Z,149807.69
2023-02-02T09:00:50.809Z,149816.47
2023-02-02T09:03:16.578Z,149825.31
2023-02-02T09:05:43.486Z,149817.72
2023-02-02T09:08:09.797Z,149827.81
2023-02-02T09:10:36.938Z,149824.00
2023-02-02T09:13:03.706Z,149813.97
2023-02-02T09:15:30.231Z,149812.69
2023-02-02T09:17:56.232Z,149845.47
2023-02-02T09:20:22.208Z,149821.50
2023-02-02T09:22:48.169Z,149827.81
2023-02-02T09:25:14.294Z,149830.34
2023-02-02T09:27:40.799Z,149816.47
2023-02-02T09:30:08.436Z,149815.22
2023-02-02T09:32:34.436Z,149845.47
2023-02-02T09:35:00.284Z,149808.94
2023-02-02T09:37:26.910Z,149832.84
2023-02-02T09:39:52.933Z,149853.00
2023-02-02T09:42:30.800Z,149847.97
2023-02-02T09:45:02.461Z,149830.34
2023-02-02T09:48:00.566Z,149825.31
2023-02-02T09:50:49.819Z,149831.59
2023-02-02T09:53:18.521Z,149837.88
2023-02-02T09:55:47.873Z,149849.22
2023-02-02T09:58:24.387Z,149871.91
2023-02-02T10:01:15.587Z,149873.16
2023-02-02T10:04:05.898Z,149883.25
2023-02-02T10:06:40.049Z,149892.03
2023-02-02T10:09:46.708Z,149882.00
2023-02-02T10:12:40.722Z,149887.03
2023-02-02T10:15:23.661Z,149894.56
2023-02-02T10:17:52.440Z,149903.41
2023-02-02T10:20:36.857Z,149909.69
2023-02-02T10:23:15.331Z,149902.16
2023-02-02T10:25:53.708Z,149898.38
2023-02-02T10:28:19.973Z,149882.00
2023-02-02T10:30:53.481Z,149879.47
2023-02-02T10:33:39.033Z,149899.63
2023-02-02T10:36:10.948Z,149878.19
2023-02-02T10:39:07.983Z,149869.38
2023-02-02T10:42:18.990Z,149897.13
2023-02-02T10:44:55.876Z,149873.16
2023-02-02T10:47:31.517Z,149869.38
2023-02-02T10:50:13.067Z,149856.75
2023-02-02T10:53:04.910Z,149876.91
2023-02-02T10:55:35.997Z,149893.31
2023-02-02T10:58:10.983Z,149890.78
2023-02-02T11:00:58.125Z,149907.19
2023-02-02T11:03:28.870Z,149902.16
2023-02-02T11:06:16.311Z,149894.56
2023-02-02T11:08:44.112Z,149884.50
2023-02-02T11:11:44.536Z,149851.75
2023-02-02T11:14:18.117Z,149871.91
2023-02-02T11:16:45.194Z,149882.00
2023-02-02T11:19:16.809Z,149895.81
2023-02-02T11:21:57.467Z,149928.59
2023-02-02T11:24:27.850Z,149898.38
2023-02-02T11:27:03.883Z,149908.44
2023-02-02T11:29:38.711Z,149882.00
2023-02-02T11:32:37.322Z,149912.19
2023-02-02T11:35:03.088Z,149905.91
2023-02-02T11:37:34.506Z,149908.44
2023-02-02T11:40:23.622Z,149919.78
2023-02-02T11:42:51.350Z,149904.66
2023-02-02T11:45:25.155Z,149916.03
2023-02-02T11:47:51.226Z,149912.19
2023-02-02T11:50:26.173Z,149907.19
2023-02-02T11:52:52.497Z,149899.63
2023-02-02T11:55:27.382Z,149926.06
2023-02-02T11:58:14.731Z,149905.91
2023-02-02T12:00:54.996Z,149895.81
2023-02-02T12:03:38.340Z,149890.78
2023-02-02T12:06:25.472Z,149908.44
2023-02-02T12:09:03.055Z,149883.25
2023-02-02T12:11:53.423Z,149880.75
2023-02-02T12:14:21.971Z,149869.38
2023-02-02T12:16:58.417Z,149879.47
2023-02-02T12:19:48.175Z,149890.78
2023-02-02T12:22:38.064Z,149895.81
2023-02-02T12:25:22.156Z,149883.25
2023-02-02T12:27:59.153Z,149868.13
2023-02-02T12:30:40.200Z,149864.34
2023-02-02T12:33:35.370Z,149869.38
2023-02-02T12:36:14.178Z,149849.22
2023-02-02T12:39:01.940Z,149861.84
2023-02-02T12:41:31.895Z,149897.13
2023-02-02T12:44:25.906Z,149878.19
2023-02-02T12:47:13.746Z,149869.38
2023-02-02T12:49:48.688Z,149864.34
2023-02-02T12:52:33.055Z,149878.19
2023-02-02T12:55:27.153Z,149893.31
2023-02-02T12:58:19.992Z,149912.19
2023-02-02T13:01:31.124Z,149871.91
2023-02-02T13:04:12.935Z,149851.75
2023-02-02T13:06:55.644Z,149866.88
2023-02-02T13:09:58.960Z,149882.00
2023-02-02T13:12:27.862Z,149874.41
2023-02-02T13:14:58.552Z,149882.00
2023-02-02T13:17:38.931Z,149875.66
2023-02-02T13:20:23.315Z,149904.66
2023-02-02T13:22:54.381Z,149884.50
2023-02-02T13:25:48.525Z,149890.78
2023-02-02T13:28:41.699Z,149865.63
2023-02-02T13:31:36.055Z,149898.38
2023-02-02T13:34:25.110Z,149918.53
2023-02-02T13:37:01.246Z,149904.66
2023-02-02T13:39:34.360Z,149903.41
2023-02-02T13:42:02.177Z,149898.38
2023-02-02T13:44:36.988Z,149898.38
2023-02-02T13:47:10.624Z,149898.38
2023-02-02T13:49:43.544Z,149908.44
2023-02-02T13:52:24.629Z,149907.19
2023-02-02T13:55:00.049Z,149909.69
2023-02-02T13:57:37.457Z,149905.91
2023-02-02T14:00:30.082Z,149898.38
2023-02-02T14:02:58.841Z,149914.75
2023-02-02T14:05:37.396Z,149909.69
2023-02-02T14:08:19.007Z,149904.66
2023-02-02T14:10:58.187Z,149898.38
2023-02-02T14:13:47.080Z,149921.03
2023-02-02T14:16:36.149Z,149933.66
2023-02-02T14:19:04.413Z,149921.03
2023-02-02T14:21:33.255Z,149909.69
2023-02-02T14:24:12.150Z,149923.56
2023-02-02T14:26:45.340Z,149947.47
2023-02-02T14:29:32.826Z,149958.84
2023-02-02T14:32:01.259Z,149934.91
2023-02-02T14:34:41.256Z,149936.19
2023-02-02T14:37:22.083Z,149929.84
2023-02-02T14:40:17.193Z,149932.41
2023-02-02T14:43:13.993Z,149933.66
2023-02-02T14:45:44.024Z,149951.31
2023-02-02T14:48:13.342Z,149933.66
2023-02-02T14:50:39.840Z,149928.59
2023-02-02T14:53:12.384Z,149936.19
2023-02-02T14:55:50.955Z,149934.91
2023-02-02T14:58:33.512Z,149923.56
2023-02-02T15:01:06.929Z,149917.28
2023-02-02T15:03:35.796Z,149952.56
2023-02-02T15:06:04.946Z,149924.81
2023-02-02T15:08:30.875Z,149952.56
2023-02-02T15:11:23.848Z,149939.94
2023-02-02T15:14:06.445Z,149934.91
2023-02-02T15:16:34.964Z,149924.81
2023-02-02T15:19:12.522Z,149937.44
2023-02-02T15:21:40.247Z,149937.44
2023-02-02T15:24:18.162Z,149931.09
2023-02-02T15:26:45.869Z,149924.81
2023-02-02T15:29:44.125Z,149922.31
2023-02-02T15:32:16.798Z,149922.31
2023-02-02T15:34:50.295Z,149979.00
2023-02-02T15:37:22.450Z,149939.94
2023-02-02T15:39:55.177Z,149948.75
2023-02-02T15:42:52.499Z,149961.38
2023-02-02T15:45:27.270Z,149932.41
2023-02-02T15:47:55.235Z,149951.31
2023-02-02T15:50:26.241Z,149966.38
2023-02-02T15:52:53.920Z,149939.94
2023-02-02T15:55:21.515Z,149923.56
2023-02-02T15:57:47.546Z,149947.47
2023-02-02T16:00:34.176Z,149942.47
2023-02-02T16:03:10.231Z,149955.06
2023-02-02T16:05:36.011Z,149937.44
2023-02-02T16:08:06.586Z,149933.66
2023-02-02T16:10:34.459Z,149939.94
2023-02-02T16:13:01.192Z,149958.84
2023-02-02T16:15:28.743Z,149924.81
2023-02-02T16:17:59.791Z,149943.72
2023-02-02T16:20:27.993Z,149921.03
2023-02-02T16:23:00.987Z,149917.28
2023-02-02T16:25:29.899Z,149955.06
2023-02-02T16:27:59.763Z,149942.47
2023-02-02T16:30:28.663Z,149960.09
2023-02-02T16:32:54.753Z,149956.34
2023-02-02T16:35:40.171Z,149924.81
2023-02-02T16:38:14.811Z,149944.97
2023-02-02T16:40:41.475Z,149914.75
2023-02-02T16:43:20.274Z,149922.31
2023-02-02T16:45:59.786Z,149928.59
2023-02-02T16:48:33.605Z,149947.47
2023-02-02T16:51:32.194Z,149931.09
2023-02-02T16:54:05.421Z,149908.44
2023-02-02T16:56:38.326Z,149918.53
2023-02-02T16:59:26.946Z,149926.06
2023-02-02T17:02:02.700Z,149931.09
2023-02-02T17:04:31.622Z,149928.59
2023-02-02T17:07:09.497Z,149942.47
2023-02-02T17:09:40.282Z,149918.53
2023-02-02T17:12:33.262Z,149951.31
2023-02-02T17:15:19.961Z,149947.47
2023-02-02T17:17:47.900Z,149943.72
2023-02-02T17:20:15.028Z,149948.75
2023-02-02T17:22:43.984Z,149960.09
2023-02-02T17:25:16.517Z,149931.09
2023-02-02T17:27:43.862Z,149931.09
2023-02-02T17:30:14.876Z,149948.75
2023-02-02T17:32:41.267Z,149936.19
2023-02-02T17:35:14.819Z,149944.97
2023-02-02T17:37:40.637Z,149938.69
2023-02-02T17:40:08.648Z,149953.81
2023-02-02T17:42:34.807Z,149948.75
2023-02-02T17:45:00.848Z,149931.09
2023-02-02T17:47:26.979Z,149950.06
2023-02-02T17:49:53.046Z,149936.19
2023-02-02T17:52:19.219Z,149956.34
2023-02-02T17:54:45.138Z,149960.09
2023-02-02T17:57:11.031Z,149948.75
2023-02-02T17:59:36.817Z,149960.09
2023-02-02T18:02:03.345Z,149965.13
2023-02-02T18:04:29.359Z,149967.66
2023-02-02T18:06:55.236Z,149977.75
2023-02-02T18:09:21.162Z,149961.38
2023-02-02T18:11:49.119Z,149979.00
2023-02-02T18:14:15.415Z,149995.41
2023-02-02T18:16:41.314Z,149973.97
2023-02-02T18:19:07.322Z,149987.84
2023-02-02T18:21:33.317Z,149982.78
2023-02-02T18:23:59.606Z,149989.09
2023-02-02T18:26:26.496Z,149981.53
2023-02-02T18:28:52.752Z,149975.22
2023-02-02T18:31:23.074Z,149979.00
2023-02-02T18:33:49.576Z,149990.38
2023-02-02T18:36:19.371Z,150000.41
2023-02-02T18:38:46.814Z,149989.09
2023-02-02T18:41:13.995Z,149971.47
2023-02-02T18:43:40.045Z,149985.28
2023-02-02T18:46:09.672Z,149973.97
2023-02-02T18:48:36.455Z,149981.53
2023-02-02T18:51:07.231Z,149980.25
2023-02-02T18:53:34.147Z,149990.38
2023-02-02T18:56:07.078Z,149976.50
2023-02-02T18:58:34.598Z,149991.63
2023-02-02T19:01:14.617Z,149986.59
2023-02-02T19:03:41.419Z,150004.25
2023-02-02T19:06:27.740Z,149967.66
2023-02-02T19:08:54.129Z,149977.75
2023-02-02T19:11:22.470Z,149997.91
2023-02-02T19:13:49.859Z,149995.41
2023-02-02T19:16:25.463Z,150010.53
2023-02-02T19:18:51.227Z,150014.28
2023-02-02T19:21:17.134Z,150008.00
2023-02-02T19:23:45.333Z,149996.66
2023-02-02T19:26:20.299Z,150010.53
2023-02-02T19:28:46.345Z,149999.16
2023-02-02T19:31:13.864Z,149999.16
2023-02-02T19:33:46.103Z,149994.13
2023-02-02T19:36:15.013Z,149997.91
2023-02-02T19:38:41.059Z,150019.31
2023-02-02T19:41:35.544Z,149995.41
2023-02-02T19:44:10.048Z,150013.03
2023-02-02T19:46:42.925Z,150009.28
2023-02-02T19:49:17.480Z,150035.72
2023-02-02T19:51:51.895Z,150029.44
2023-02-02T19:54:27.162Z,150034.47
2023-02-02T19:56:56.441Z,150042.06
2023-02-02T19:59:24.907Z,150020.59
2023-02-02T20:01:51.967Z,150050.84
2023-02-02T20:04:19.503Z,150054.63
2023-02-02T20:06:58.447Z,150052.09
2023-02-02T20:09:33.556Z,150039.50
2023-02-02T20:11:59.915Z,150035.72
2023-02-02T20:14:29.508Z,150057.13
2023-02-02T20:17:07.000Z,150049.59
2023-02-02T20:19:39.272Z,150057.13
2023-02-02T20:22:24.543Z,150052.09
2023-02-02T20:24:51.262Z,150065.97
2023-02-02T20:27:27.762Z,150055.88
2023-02-02T20:30:14.988Z,150045.81
2023-02-02T20:32:41.758Z,150077.34
2023-02-02T20:35:24.579Z,150063.47
2023-02-02T20:37:51.068Z,150089.91
2023-02-02T20:40:22.046Z,150083.63
2023-02-02T20:42:48.622Z,150076.09
2023-02-02T20:45:18.677Z,150077.34
2023-02-02T20:47:45.303Z,150100.03
2023-02-02T20:50:14.032Z,150081.13
2023-02-02T20:52:40.185Z,150067.25
2023-02-02T20:55:07.013Z,150078.59
2023-02-02T20:57:33.713Z,150083.63
2023-02-02T20:59:59.823Z,150058.44
2023-02-02T21:02:26.617Z,150065.97
2023-02-02T21:04:53.557Z,150068.50
2023-02-02T21:07:21.042Z,150055.88
2023-02-02T21:09:48.812Z,150073.53
2023-02-02T21:12:15.371Z,150063.47
2023-02-02T21:14:41.340Z,150078.59
2023-02-02T21:17:14.818Z,150067.25
2023-02-02T21:19:42.414Z,150073.53
2023-02-02T21:22:08.452Z,150091.19
2023-02-02T21:24:34.292Z,150074.78
2023-02-02T21:27:01.364Z,150096.25
2023-02-02T21:29:30.510Z,150058.44
2023-02-02T21:31:58.821Z,150069.75
2023-02-02T21:34:25.498Z,150074.78
2023-02-02T21:36:56.044Z,150050.84
2023-02-02T21:39:34.820Z,150067.25
2023-02-02T21:42:06.290Z,150064.72
2023-02-02T21:44:32.938Z,150079.88
2023-02-02T21:47:00.568Z,150098.78
2023-02-02T21:49:35.534Z,150102.53
2023-02-02T21:52:13.128Z,150071.00
2023-02-02T21:54:39.778Z,150074.78
2023-02-02T21:57:20.544Z,150084.91
2023-02-02T21:59:52.458Z,150096.25
2023-02-02T22:02:37.287Z,150073.53
2023-02-02T22:05:17.269Z,150086.16
2023-02-02T22:07:46.945Z,150076.09
2023-02-02T22:10:42.360Z,150071.00
2023-02-02T22:13:19.644Z,150082.38
2023-02-02T22:15:46.943Z,150063.47
2023-02-02T22:18:20.953Z,150055.88
2023-02-02T22:20:49.897Z,150067.25
2023-02-02T22:23:21.018Z,150095.00
2023-02-02T22:25:48.993Z,150068.50
2023-02-02T22:28:27.107Z,150063.47
2023-02-02T22:30:54.814Z,150062.22
2023-02-02T22:33:22.701Z,150098.78
2023-02-02T22:35:49.112Z,150077.34
2023-02-02T22:38:19.842Z,150091.19
2023-02-02T22:40:46.870Z,150096.25
2023-02-02T22:43:15.447Z,150062.22
2023-02-02T22:45:42.655Z,150078.59
2023-02-02T22:48:08.810Z,150063.47
2023-02-02T22:50:35.229Z,150091.19
2023-02-02T22:53:02.770Z,150078.59
2023-02-02T22:55:29.058Z,150063.47
2023-02-02T22:57:54.835Z,150044.56
2023-02-02T23:00:24.284Z,150054.63
2023-02-02T23:02:51.447Z,150052.09
2023-02-02T23:05:18.887Z,150054.63
2023-02-02T23:07:45.867Z,150048.34
2023-02-02T23:10:14.232Z,150058.44
2023-02-02T23:12:41.173Z,150050.84
2023-02-02T23:15:07.516Z,150071.00
2023-02-02T23:17:34.623Z,150071.00
2023-02-02T23:20:06.280Z,150107.56
2023-02-02T23:22:32.298Z,150052.09
2023-02-02T23:24:58.608Z,150079.88
2023-02-02T23:27:25.142Z,150071.00
2023-02-02T23:29:50.984Z,150074.78
2023-02-02T23:32:16.807Z,150089.91
2023-02-02T23:34:42.727Z,150098.78
2023-02-02T23:37:08.513Z,150091.19
2023-02-02T23:39:34.294Z,150063.47
2023-02-02T23:42:00.190Z,150065.97
2023-02-02T23:44:26.070Z,150057.13
2023-02-02T23:46:52.531Z,150059.69
2023-02-02T23:49:18.864Z,150068.50
2023-02-02T23:51:45.166Z,150072.28
2023-02-02T23:54:12.233Z,150053.38
2023-02-02T23:56:39.422Z,150039.50
2023-02-02T23:59:05.295Z,150031.94
